Time;durP1;ratioP1;P1;durP2;ratioP2;P2;SDS_P1;SDS_P2;PMS_P1;PMS_P2;Temp;Humidity;BMP_temperature;BMP_pressure;BME280_temperature;BME280_humidity;BME280_pressure;Samples;Min_cycle;Max_cycle;Signal;HPM_P1;HPM_P2
2021/10/18 00:00:51;;;;;;;5.07;4.57;;;13.60;71.40;;;;;;5010927;28;20041;-82
2021/10/18 00:03:18;;;;;;;9.90;5.97;;;13.50;71.40;;;;;;4958809;28;20034;-82
2021/10/18 00:05:44;;;;;;;5.10;4.80;;;13.50;71.40;;;;;;5000438;28;20035;-83
2021/10/18 00:08:11;;;;;;;6.18;5.68;;;13.50;71.40;;;;;;4984077;28;20091;-83
2021/10/18 00:10:37;;;;;;;5.40;5.03;;;13.50;71.40;;;;;;4986427;28;20045;-83
2021/10/18 00:13:03;;;;;;;7.47;6.80;;;13.50;71.40;;;;;;5001662;28;20053;-83
2021/10/18 00:15:29;;;;;;;5.55;5.25;;;13.40;71.40;;;;;;4994369;28;20043;-83
2021/10/18 00:17:59;;;;;;;5.55;5.05;;;13.40;72.20;;;;;;5017605;28;20038;-77
2021/10/18 00:20:26;;;;;;;8.60;5.68;;;13.40;71.50;;;;;;4993068;28;20034;-82
2021/10/18 00:22:52;;;;;;;5.30;4.88;;;13.40;71.50;;;;;;5023508;28;20042;-83
2021/10/18 00:25:19;;;;;;;7.13;6.05;;;13.30;71.50;;;;;;4981313;28;20061;-82
2021/10/18 00:27:45;;;;;;;5.28;4.97;;;13.30;71.50;;;;;;4981595;28;20514;-82
2021/10/18 00:30:11;;;;;;;7.30;6.30;;;13.30;71.60;;;;;;4975326;28;20046;-82
2021/10/18 00:32:38;;;;;;;6.22;5.65;;;13.30;71.70;;;;;;4984052;28;20043;-83
2021/10/18 00:35:04;;;;;;;5.85;5.35;;;13.30;71.60;;;;;;5019522;28;20535;-83
2021/10/18 00:37:31;;;;;;;11.55;5.25;;;13.30;71.60;;;;;;4988426;28;20026;-82
2021/10/18 00:39:57;;;;;;;5.93;5.55;;;13.30;71.60;;;;;;4989477;28;20045;-82
2021/10/18 00:42:23;;;;;;;5.63;5.18;;;13.30;71.60;;;;;;5014301;28;20383;-83
2021/10/18 00:44:50;;;;;;;5.70;5.28;;;13.30;71.70;;;;;;4986574;28;20039;-82
2021/10/18 00:47:17;;;;;;;4.80;4.50;;;13.30;71.70;;;;;;4990211;28;20395;-82
2021/10/18 00:49:43;;;;;;;4.63;4.35;;;13.30;71.60;;;;;;4999329;28;20031;-83
2021/10/18 00:52:10;;;;;;;11.25;5.60;;;13.30;71.60;;;;;;5006034;28;20045;-83
2021/10/18 00:54:36;;;;;;;5.28;4.95;;;13.20;71.60;;;;;;5024995;28;20487;-83
2021/10/18 00:57:02;;;;;;;5.00;4.70;;;13.20;71.60;;;;;;4985267;28;20037;-83
2021/10/18 00:59:28;;;;;;;5.20;4.75;;;13.20;71.60;;;;;;5018951;28;20033;-83
2021/10/18 01:01:54;;;;;;;5.90;5.15;;;13.20;71.70;;;;;;4989389;28;20034;-83
2021/10/18 01:04:20;;;;;;;5.30;5.00;;;13.20;71.70;;;;;;4991472;28;20031;-83
2021/10/18 01:06:46;;;;;;;12.38;4.68;;;13.20;71.70;;;;;;4990306;28;20026;-83
2021/10/18 01:09:13;;;;;;;6.05;5.35;;;13.10;71.70;;;;;;4986717;28;20037;-82
2021/10/18 01:11:39;;;;;;;5.07;4.68;;;13.10;71.80;;;;;;4989206;28;20041;-82
2021/10/18 01:14:07;;;;;;;5.60;5.20;;;13.10;71.80;;;;;;4988207;28;20298;-82
2021/10/18 01:16:33;;;;;;;5.57;5.07;;;13.10;71.80;;;;;;4991632;28;20437;-83
2021/10/18 01:19:12;;;;;;;5.68;5.32;;;13.00;71.90;;;;;;5020395;28;20042;-82
2021/10/18 01:21:39;;;;;;;5.40;4.90;;;13.00;71.90;;;;;;4990096;28;20058;-82
2021/10/18 01:24:05;;;;;;;4.78;4.57;;;12.90;71.90;;;;;;5018492;28;20403;-83
2021/10/18 01:26:31;;;;;;;10.65;5.40;;;12.90;71.90;;;;;;4987539;28;20038;-83
2021/10/18 01:28:57;;;;;;;5.65;4.95;;;12.90;72.00;;;;;;4983521;28;20404;-82
2021/10/18 01:31:23;;;;;;;4.72;4.40;;;12.90;72.00;;;;;;4978390;28;20030;-82
2021/10/18 01:33:49;;;;;;;4.85;4.53;;;12.90;72.00;;;;;;4977617;28;20043;-82
2021/10/18 01:36:15;;;;;;;4.78;4.40;;;12.90;72.10;;;;;;4997296;28;20051;-82
2021/10/18 01:38:41;;;;;;;5.07;4.72;;;12.90;72.10;;;;;;4985398;28;20042;-83
2021/10/18 01:41:07;;;;;;;5.18;4.60;;;12.90;72.00;;;;;;4987464;28;20035;-82
2021/10/18 01:43:34;;;;;;;4.65;4.30;;;12.90;72.00;;;;;;4997419;28;20073;-83
2021/10/18 01:46:00;;;;;;;5.57;5.10;;;12.90;72.00;;;;;;4985718;28;20038;-82
2021/10/18 01:48:26;;;;;;;4.30;4.10;;;12.90;72.00;;;;;;4982144;28;20026;-82
2021/10/18 01:50:52;;;;;;;7.00;4.53;;;12.90;72.00;;;;;;4993184;28;20049;-82
2021/10/18 01:53:18;;;;;;;5.57;5.18;;;12.80;72.40;;;;;;4990191;28;20468;-82
2021/10/18 01:55:44;;;;;;;4.32;4.13;;;12.90;72.10;;;;;;4986980;28;20041;-84
2021/10/18 01:58:13;;;;;;;4.88;4.45;;;12.90;72.10;;;;;;4991933;28;20411;-83
2021/10/18 02:00:40;;;;;;;4.75;4.45;;;12.80;72.00;;;;;;4989804;28;20035;-83
2021/10/18 02:03:06;;;;;;;5.15;4.75;;;12.90;72.10;;;;;;4983054;28;20037;-83
2021/10/18 02:05:32;;;;;;;5.18;4.78;;;12.80;72.10;;;;;;4982821;28;20038;-82
2021/10/18 02:07:58;;;;;;;5.18;4.70;;;12.80;72.20;;;;;;4986459;28;20034;-82
2021/10/18 02:10:24;;;;;;;4.50;4.20;;;12.80;72.20;;;;;;4988981;28;20037;-82
2021/10/18 02:12:51;;;;;;;5.95;5.45;;;12.80;72.20;;;;;;5001199;28;20035;-83
2021/10/18 02:15:17;;;;;;;4.80;4.40;;;12.80;72.20;;;;;;4988337;28;20042;-83
2021/10/18 02:17:43;;;;;;;4.47;4.18;;;12.80;72.20;;;;;;5018391;28;20026;-83
2021/10/18 02:20:10;;;;;;;4.55;3.97;;;12.80;72.20;;;;;;4985154;28;20031;-83
2021/10/18 02:22:37;;;;;;;4.55;4.13;;;12.80;72.30;;;;;;4987692;28;20037;-83
2021/10/18 02:25:04;;;;;;;4.85;4.55;;;12.80;72.30;;;;;;4991238;28;20487;-83
2021/10/18 02:27:30;;;;;;;5.78;4.45;;;12.80;72.30;;;;;;5015401;28;20023;-83
2021/10/18 02:29:56;;;;;;;6.53;4.35;;;12.80;72.30;;;;;;4996997;28;20054;-83
2021/10/18 02:32:22;;;;;;;5.20;4.70;;;12.80;72.30;;;;;;5002702;28;20104;-83
2021/10/18 02:34:48;;;;;;;4.50;4.20;;;12.80;72.30;;;;;;4982293;28;20058;-83
2021/10/18 02:37:14;;;;;;;6.40;5.90;;;12.70;72.30;;;;;;5003248;28;20388;-83
2021/10/18 02:39:40;;;;;;;4.97;4.65;;;12.70;72.40;;;;;;5002897;28;20034;-82
2021/10/18 02:42:06;;;;;;;5.03;4.68;;;12.60;72.50;;;;;;4991485;28;20022;-82
2021/10/18 02:44:32;;;;;;;3.90;3.70;;;12.70;72.60;;;;;;4989230;28;20041;-83
2021/10/18 02:46:58;;;;;;;4.43;4.22;;;12.60;72.60;;;;;;4990384;28;20049;-83
2021/10/18 02:49:25;;;;;;;4.15;3.95;;;12.60;72.50;;;;;;4986837;28;20049;-83
2021/10/18 02:51:51;;;;;;;4.88;4.40;;;12.70;72.60;;;;;;4981538;28;20039;-82
2021/10/18 02:54:17;;;;;;;5.47;5.07;;;12.60;72.60;;;;;;4990286;28;20491;-82
2021/10/18 02:56:43;;;;;;;4.40;4.20;;;12.60;72.60;;;;;;5017005;28;20510;-82
2021/10/18 02:59:09;;;;;;;5.65;5.25;;;12.60;72.60;;;;;;4986366;28;20049;-82
2021/10/18 03:01:35;;;;;;;4.10;3.90;;;12.60;72.60;;;;;;5022729;28;20054;-82
2021/10/18 03:04:01;;;;;;;4.13;3.92;;;12.60;72.60;;;;;;5015940;28;20042;-82
2021/10/18 03:06:27;;;;;;;4.28;3.88;;;12.60;72.70;;;;;;4982875;28;20502;-82
2021/10/18 03:08:54;;;;;;;5.18;4.78;;;12.60;72.70;;;;;;4980371;28;20035;-82
2021/10/18 03:11:20;;;;;;;5.65;4.20;;;12.50;72.60;;;;;;4987623;28;20030;-83
2021/10/18 03:13:46;;;;;;;4.57;4.28;;;12.50;72.70;;;;;;4987221;28;20065;-82
2021/10/18 03:16:12;;;;;;;4.38;4.18;;;12.50;72.60;;;;;;5014880;28;20054;-82
2021/10/18 03:18:38;;;;;;;4.95;4.55;;;12.50;72.70;;;;;;4990538;28;20031;-83
2021/10/18 03:21:04;;;;;;;4.10;3.88;;;12.50;72.70;;;;;;4981402;28;20412;-83
2021/10/18 03:23:30;;;;;;;4.15;3.95;;;12.50;72.70;;;;;;4960472;28;20035;-82
2021/10/18 03:25:56;;;;;;;4.55;4.32;;;12.50;72.80;;;;;;4986487;28;20039;-83
2021/10/18 03:28:23;;;;;;;4.50;4.30;;;12.50;72.80;;;;;;4986893;28;20049;-83
2021/10/18 03:30:49;;;;;;;4.93;4.50;;;12.50;72.90;;;;;;4965051;28;20045;-83
2021/10/18 03:33:15;;;;;;;5.00;4.60;;;12.40;72.80;;;;;;5000234;28;20404;-82
2021/10/18 03:35:41;;;;;;;4.60;4.30;;;12.40;72.90;;;;;;4984960;28;20050;-83
2021/10/18 03:38:07;;;;;;;4.28;4.07;;;12.40;72.90;;;;;;4999703;28;20041;-82
2021/10/18 03:40:33;;;;;;;11.38;5.47;;;12.40;72.90;;;;;;4988908;28;20396;-82
2021/10/18 03:42:59;;;;;;;4.07;3.88;;;12.40;72.90;;;;;;4991245;28;20041;-82
2021/10/18 03:45:25;;;;;;;4.63;4.40;;;12.40;72.90;;;;;;4977909;28;20649;-83
2021/10/18 03:47:52;;;;;;;4.20;3.90;;;12.40;72.90;;;;;;4985719;28;20045;-86
2021/10/18 03:50:18;;;;;;;4.68;4.28;;;12.40;72.90;;;;;;4991346;28;20030;-83
2021/10/18 03:52:44;;;;;;;4.38;4.15;;;12.40;72.90;;;;;;4989495;28;20033;-83
2021/10/18 03:55:10;;;;;;;4.10;3.90;;;12.40;72.90;;;;;;5004264;28;20050;-83
2021/10/18 03:57:36;;;;;;;4.93;4.53;;;12.40;72.90;;;;;;4990413;28;20026;-84
2021/10/18 04:00:04;;;;;;;5.45;4.95;;;12.40;73.00;;;;;;4974114;28;20524;-83
2021/10/18 04:02:30;;;;;;;4.35;4.15;;;12.40;73.00;;;;;;4996537;28;20030;-83
2021/10/18 04:04:56;;;;;;;4.85;4.55;;;12.50;72.90;;;;;;4980580;28;20506;-83
2021/10/18 04:07:22;;;;;;;4.13;3.92;;;12.40;72.90;;;;;;4997667;28;20045;-83
2021/10/18 04:09:48;;;;;;;5.50;4.97;;;12.50;72.90;;;;;;4999967;28;20029;-83
2021/10/18 04:12:14;;;;;;;3.92;3.72;;;12.50;72.90;;;;;;4989921;28;20029;-83
2021/10/18 04:14:40;;;;;;;4.40;4.07;;;12.50;72.90;;;;;;4989262;28;20057;-83
2021/10/18 04:17:07;;;;;;;5.40;4.93;;;12.50;72.90;;;;;;4989002;28;20506;-83
2021/10/18 04:19:33;;;;;;;5.72;4.72;;;12.50;73.70;;;;;;5005545;28;20030;-83
2021/10/18 04:21:59;;;;;;;4.00;3.80;;;12.50;72.90;;;;;;5005316;28;20061;-83
2021/10/18 04:24:25;;;;;;;4.00;3.80;;;12.50;72.90;;;;;;4988500;28;20399;-83
2021/10/18 04:26:51;;;;;;;6.85;4.93;;;12.50;72.90;;;;;;4993078;28;20038;-82
2021/10/18 04:29:17;;;;;;;4.80;4.50;;;12.50;72.90;;;;;;4992065;28;20022;-83
2021/10/18 04:31:46;;;;;;;4.97;4.68;;;12.50;72.90;;;;;;5000534;28;20034;-82
2021/10/18 04:34:12;;;;;;;3.90;3.70;;;12.50;72.90;;;;;;4993704;28;20045;-82
2021/10/18 04:36:38;;;;;;;4.25;3.95;;;12.50;72.90;;;;;;4997285;28;20046;-83
2021/10/18 04:39:04;;;;;;;4.82;4.50;;;12.60;72.90;;;;;;4994276;28;20026;-83
2021/10/18 04:41:30;;;;;;;4.18;3.88;;;12.60;72.80;;;;;;4998441;28;20042;-82
2021/10/18 04:43:56;;;;;;;4.70;4.38;;;12.60;72.80;;;;;;4991133;28;20038;-83
2021/10/18 04:46:22;;;;;;;4.53;4.22;;;12.60;72.80;;;;;;5002162;28;20050;-83
2021/10/18 04:48:49;;;;;;;4.47;4.22;;;12.70;72.80;;;;;;4998453;28;20055;-83
2021/10/18 04:51:15;;;;;;;5.38;4.97;;;12.70;72.80;;;;;;4997684;28;20475;-82
2021/10/18 04:53:41;;;;;;;4.78;4.47;;;12.60;72.90;;;;;;4997980;28;20034;-82
2021/10/18 04:56:07;;;;;;;4.07;3.67;;;12.60;72.90;;;;;;4992471;28;20483;-83
2021/10/18 04:58:33;;;;;;;3.92;3.72;;;12.70;73.00;;;;;;4990504;28;20050;-82
2021/10/18 05:00:59;;;;;;;4.25;4.00;;;12.70;73.00;;;;;;5007494;28;20489;-83
2021/10/18 05:03:25;;;;;;;4.90;4.50;;;12.70;73.00;;;;;;4995824;28;20025;-82
2021/10/18 05:05:51;;;;;;;3.78;3.58;;;12.70;73.00;;;;;;4997257;28;20034;-83
2021/10/18 05:08:17;;;;;;;4.40;4.00;;;12.70;73.00;;;;;;4995781;28;20094;-83
2021/10/18 05:10:44;;;;;;;5.22;4.20;;;12.80;73.10;;;;;;5002473;28;20388;-83
2021/10/18 05:13:11;;;;;;;6.88;4.88;;;12.80;73.10;;;;;;4987408;28;20042;-83
2021/10/18 05:15:37;;;;;;;5.03;4.70;;;12.80;73.10;;;;;;5003262;28;20061;-82
2021/10/18 05:18:04;;;;;;;3.95;3.75;;;12.80;73.10;;;;;;4992529;28;20045;-82
2021/10/18 05:20:30;;;;;;;4.32;4.03;;;12.80;73.10;;;;;;5003379;28;20034;-83
2021/10/18 05:22:57;;;;;;;5.78;4.57;;;12.80;73.10;;;;;;4991320;28;20034;-83
2021/10/18 05:25:23;;;;;;;4.93;4.55;;;12.80;73.30;;;;;;5000428;28;20693;-83
2021/10/18 05:27:49;;;;;;;4.35;4.05;;;12.80;73.20;;;;;;4985803;28;20380;-83
2021/10/18 05:30:19;;;;;;;4.55;4.25;;;12.90;73.30;;;;;;4998366;28;20098;-82
2021/10/18 05:32:45;;;;;;;4.55;4.15;;;12.90;73.30;;;;;;4991486;28;20419;-83
2021/10/18 05:35:12;;;;;;;5.10;4.68;;;12.90;73.30;;;;;;4992981;28;20054;-83
2021/10/18 05:37:44;;;;;;;4.00;3.80;;;12.90;73.30;;;;;;4993808;28;20034;-82
2021/10/18 05:40:11;;;;;;;4.43;4.15;;;12.90;73.40;;;;;;4981858;28;20041;-81
2021/10/18 05:42:37;;;;;;;4.53;4.22;;;12.90;73.50;;;;;;4994697;28;20054;-81
2021/10/18 05:45:03;;;;;;;4.22;3.92;;;12.90;73.50;;;;;;4994579;28;20042;-80
2021/10/18 05:47:29;;;;;;;3.90;3.70;;;13.00;73.50;;;;;;4989952;28;20049;-81
2021/10/18 05:49:56;;;;;;;3.85;3.63;;;13.00;73.50;;;;;;4992426;28;20049;-81
2021/10/18 05:52:22;;;;;;;4.15;3.70;;;13.00;73.40;;;;;;4993064;28;20046;-82
2021/10/18 05:54:48;;;;;;;9.48;4.97;;;13.10;73.50;;;;;;4989133;28;20034;-82
2021/10/18 05:57:14;;;;;;;5.35;3.90;;;13.10;73.50;;;;;;4994739;28;20038;-81
2021/10/18 05:59:40;;;;;;;4.95;4.47;;;13.10;73.40;;;;;;4999086;28;20034;-83
2021/10/18 06:02:07;;;;;;;3.47;3.30;;;13.20;73.50;;;;;;5004323;28;20073;-82
2021/10/18 06:04:35;;;;;;;4.22;3.85;;;13.20;73.50;;;;;;5000977;28;20033;-80
2021/10/18 06:07:01;;;;;;;4.10;3.80;;;13.20;73.50;;;;;;5005188;28;20074;-80
2021/10/18 06:09:27;;;;;;;4.38;4.07;;;13.30;73.50;;;;;;5002077;28;20332;-82
2021/10/18 06:11:53;;;;;;;3.97;3.67;;;13.30;73.50;;;;;;5003482;28;20037;-83
2021/10/18 06:14:19;;;;;;;3.35;3.20;;;13.40;73.60;;;;;;4994533;28;20487;-82
2021/10/18 06:16:45;;;;;;;4.35;4.00;;;13.40;73.60;;;;;;4993050;28;20046;-81
2021/10/18 06:19:11;;;;;;;4.65;4.30;;;13.40;73.70;;;;;;4998490;28;20483;-82
2021/10/18 06:21:37;;;;;;;4.15;3.85;;;13.40;73.70;;;;;;4978529;28;20050;-86
2021/10/18 06:24:04;;;;;;;4.32;4.03;;;13.40;73.90;;;;;;4989510;28;20041;-90
2021/10/18 06:26:30;;;;;;;4.60;4.30;;;13.30;73.90;;;;;;4997253;28;20418;-89
2021/10/18 06:28:56;;;;;;;5.22;4.82;;;13.30;74.10;;;;;;4996366;28;20022;-85
2021/10/18 06:31:22;;;;;;;8.30;5.15;;;13.30;74.20;;;;;;4992100;28;20050;-87
2021/10/18 06:33:48;;;;;;;4.25;3.95;;;13.40;74.40;;;;;;4995886;28;20034;-86
2021/10/18 06:36:14;;;;;;;4.00;3.80;;;13.30;74.50;;;;;;4994536;28;20057;-87
2021/10/18 06:38:41;;;;;;;3.88;3.67;;;13.30;74.60;;;;;;4987421;28;20472;-87
2021/10/18 06:41:07;;;;;;;4.15;3.83;;;13.30;74.70;;;;;;4992980;28;20045;-87
2021/10/18 06:43:33;;;;;;;4.72;4.43;;;13.30;74.70;;;;;;4982344;28;20361;-86
2021/10/18 06:45:59;;;;;;;4.63;4.25;;;13.40;74.60;;;;;;4988353;28;20038;-85
2021/10/18 06:48:25;;;;;;;4.43;4.15;;;13.40;74.60;;;;;;4988941;28;20037;-88
2021/10/18 06:50:51;;;;;;;5.03;4.57;;;13.50;74.60;;;;;;4989221;28;20034;-91
2021/10/18 06:53:21;;;;;;;4.80;4.40;;;13.50;74.50;;;;;;4989155;28;20027;-89
2021/10/18 06:55:47;;;;;;;6.43;3.75;;;13.60;74.50;;;;;;4985728;28;20507;-91
2021/10/18 06:58:13;;;;;;;14.82;4.00;;;13.60;74.40;;;;;;4992269;28;20026;-90
2021/10/18 07:00:39;;;;;;;4.13;3.83;;;13.70;74.40;;;;;;4989070;28;20038;-89
2021/10/18 07:03:05;;;;;;;8.07;4.80;;;13.70;74.30;;;;;;5014179;28;20035;-90
2021/10/18 07:05:31;;;;;;;5.72;5.30;;;13.80;74.40;;;;;;5009766;28;20096;-89
2021/10/18 07:07:58;;;;;;;6.28;4.65;;;13.80;74.40;;;;;;4977821;28;20037;-91
2021/10/18 07:10:24;;;;;;;5.85;4.75;;;13.80;74.40;;;;;;4991634;28;20042;-90
2021/10/18 07:12:50;;;;;;;3.58;3.38;;;13.80;74.40;;;;;;4989992;28;20027;-83
2021/10/18 07:15:16;;;;;;;8.52;6.10;;;13.90;74.50;;;;;;4987910;28;20038;-86
2021/10/18 07:17:42;;;;;;;6.20;4.68;;;13.90;74.60;;;;;;4988611;28;20388;-91
2021/10/18 07:20:09;;;;;;;5.22;4.78;;;13.90;74.60;;;;;;5003731;28;20038;-90
2021/10/18 07:22:43;;;;;;;4.90;4.50;;;13.90;74.70;;;;;;4994009;28;20038;-87
2021/10/18 07:25:10;;;;;;;6.57;4.72;;;13.90;74.80;;;;;;4990103;28;20031;-86
2021/10/18 07:27:37;;;;;;;5.30;4.72;;;14.00;74.90;;;;;;4986680;28;20049;-87
2021/10/18 07:30:04;;;;;;;5.97;3.72;;;13.90;74.90;;;;;;5010279;28;20041;-88
2021/10/18 07:32:30;;;;;;;5.88;4.93;;;14.00;75.00;;;;;;5011664;28;20045;-88
2021/10/18 07:34:58;;;;;;;3.58;3.38;;;14.10;75.10;;;;;;5003331;28;20050;-87
2021/10/18 07:37:27;;;;;;;7.68;4.28;;;14.20;75.00;;;;;;4976062;28;20429;-88
2021/10/18 07:39:53;;;;;;;10.07;5.55;;;14.30;74.90;;;;;;4971986;28;20395;-86
2021/10/18 07:42:19;;;;;;;10.02;4.47;;;14.40;74.80;;;;;;5020154;28;20037;-86
2021/10/18 07:44:45;;;;;;;8.43;3.85;;;14.40;74.70;;;;;;4989903;28;20039;-88
2021/10/18 07:47:12;;;;;;;13.00;5.07;;;14.50;74.70;;;;;;5018382;28;20043;-89
2021/10/18 07:49:40;;;;;;;5.80;4.50;;;14.50;74.60;;;;;;5007012;28;20460;-89
2021/10/18 07:52:11;;;;;;;6.75;4.20;;;14.60;74.70;;;;;;4992636;28;20038;-88
2021/10/18 07:54:42;;;;;;;5.22;4.72;;;14.70;74.80;;;;;;5002141;28;20054;-87
2021/10/18 07:57:08;;;;;;;4.53;4.22;;;14.80;74.80;;;;;;5006147;28;20046;-88
2021/10/18 07:59:34;;;;;;;4.50;4.10;;;14.80;74.80;;;;;;4992185;28;20026;-86
2021/10/18 08:02:00;;;;;;;5.00;4.10;;;14.90;74.80;;;;;;4996445;28;20411;-87
2021/10/18 08:04:26;;;;;;;4.10;3.90;;;14.90;74.80;;;;;;5021678;28;20046;-87
2021/10/18 08:06:52;;;;;;;4.50;4.20;;;14.90;74.90;;;;;;4994887;28;20034;-87
2021/10/18 08:09:20;;;;;;;4.57;4.25;;;14.90;74.90;;;;;;4993815;28;20037;-87
2021/10/18 08:11:46;;;;;;;4.50;4.20;;;15.00;74.80;;;;;;4987602;28;20031;-88
2021/10/18 08:14:12;;;;;;;4.13;3.92;;;15.10;74.90;;;;;;4995248;28;20391;-87
2021/10/18 08:16:38;;;;;;;3.80;3.60;;;15.20;74.80;;;;;;4989890;28;20043;-88
2021/10/18 08:19:05;;;;;;;4.68;4.28;;;15.30;74.70;;;;;;4994560;28;20038;-86
2021/10/18 08:21:31;;;;;;;4.55;4.25;;;15.50;74.40;;;;;;4992525;28;20042;-87
2021/10/18 08:23:57;;;;;;;4.47;4.18;;;15.70;73.90;;;;;;4995882;28;20419;-88
2021/10/18 08:26:23;;;;;;;4.13;3.92;;;15.90;73.50;;;;;;4987302;28;20034;-87
2021/10/18 08:28:49;;;;;;;3.92;3.63;;;16.00;73.40;;;;;;4991229;28;20030;-88
2021/10/18 08:31:15;;;;;;;8.07;4.45;;;16.10;73.50;;;;;;4994101;28;20019;-88
2021/10/18 08:33:41;;;;;;;5.20;4.65;;;16.10;73.50;;;;;;5010940;28;20022;-87
2021/10/18 08:36:08;;;;;;;6.13;5.13;;;16.20;73.80;;;;;;4995033;28;20062;-87
2021/10/18 08:38:50;;;;;;;7.22;5.50;;;16.20;73.80;;;;;;4992321;28;20049;-83
2021/10/18 08:41:27;;;;;;;5.28;4.28;;;16.10;73.90;;;;;;4999002;28;20030;-83
2021/10/18 08:46:23;;;;;;;4.43;4.13;;;16.00;74.30;;;;;;4997817;28;20043;-81
2021/10/18 08:48:56;;;;;;;4.88;4.35;;;16.00;74.40;;;;;;5031597;28;20030;-83
2021/10/18 08:51:22;;;;;;;5.55;5.15;;;16.00;74.60;;;;;;4981846;28;20454;-85
2021/10/18 08:53:48;;;;;;;4.95;4.50;;;16.00;74.80;;;;;;4997629;28;20383;-84
2021/10/18 08:56:15;;;;;;;5.47;5.07;;;16.00;74.80;;;;;;4981662;28;20046;-83
2021/10/18 08:58:41;;;;;;;6.13;5.13;;;16.00;74.80;;;;;;4994737;28;20027;-85
2021/10/18 09:01:07;;;;;;;3.92;3.72;;;16.00;74.80;;;;;;4996541;28;20034;-84
2021/10/18 09:03:33;;;;;;;5.55;4.78;;;16.10;74.80;;;;;;4998944;28;20034;-87
2021/10/18 09:06:08;;;;;;;4.10;3.90;;;16.10;74.70;;;;;;4995211;28;20042;-83
2021/10/18 09:08:43;;;;;;;4.43;4.13;;;16.10;74.70;;;;;;4995342;28;20506;-85
2021/10/18 09:11:28;;;;;;;4.07;3.83;;;16.10;74.70;;;;;;5005501;28;20035;-84
2021/10/18 09:13:57;;;;;;;4.50;3.92;;;16.20;74.70;;;;;;5005870;28;20030;-83
2021/10/18 09:16:33;;;;;;;4.03;3.72;;;16.20;74.70;;;;;;4975640;28;20062;-84
2021/10/18 09:19:10;;;;;;;5.15;4.60;;;16.20;74.70;;;;;;4993596;28;20035;-82
2021/10/18 09:21:41;;;;;;;4.50;4.10;;;16.20;74.80;;;;;;5007317;28;20043;-84
2021/10/18 09:24:07;;;;;;;;;;;16.20;75.60;;;;;;4992356;28;20483;-86
2021/10/18 09:26:34;;;;;;;4.93;4.63;;;16.30;75.00;;;;;;4977820;28;19932;-85
2021/10/18 09:29:06;;;;;;;4.55;4.25;;;16.30;75.00;;;;;;4993014;28;20023;-86
2021/10/18 09:31:33;;;;;;;4.28;4.07;;;16.30;75.20;;;;;;5025859;28;20045;-87
2021/10/18 09:34:13;;;;;;;4.30;4.10;;;16.30;75.30;;;;;;4986982;28;20027;-85
2021/10/18 09:36:41;;;;;;;3.97;3.78;;;16.40;75.30;;;;;;5003380;28;20065;-82
2021/10/18 09:39:24;;;;;;;11.88;4.82;;;16.50;75.30;;;;;;4990366;28;20034;-82
2021/10/18 09:42:04;;;;;;;5.03;4.72;;;16.50;75.30;;;;;;4985529;28;20022;-82
2021/10/18 10:52:40;;;;;;;4.93;4.50;;;18.30;73.70;;;;;;4943092;28;20132;-92
2021/10/18 10:55:26;;;;;;;4.32;4.13;;;18.30;73.80;;;;;;4952394;28;20058;-91
2021/10/18 10:57:54;;;;;;;4.20;4.00;;;18.30;73.80;;;;;;4952567;29;20489;-89
2021/10/18 11:00:34;;;;;;;3.60;3.40;;;18.30;73.80;;;;;;4944755;28;20047;-89
2021/10/18 11:03:35;;;;;;;3.85;3.65;;;18.30;74.00;;;;;;4945226;28;20055;-87
2021/10/18 11:06:03;;;;;;;3.92;3.72;;;18.30;74.00;;;;;;4948828;28;20035;-84
2021/10/18 11:08:42;;;;;;;4.65;4.35;;;18.30;74.00;;;;;;4953174;28;20046;-85
2021/10/18 11:11:09;;;;;;;4.68;4.35;;;18.30;74.10;;;;;;4988011;28;20030;-84
2021/10/18 11:13:41;;;;;;;4.55;4.20;;;18.30;74.10;;;;;;4991910;28;20030;-86
2021/10/18 11:16:07;;;;;;;4.15;3.95;;;18.30;74.20;;;;;;4988851;28;20039;-85
2021/10/18 11:18:34;;;;;;;4.10;3.90;;;18.30;74.10;;;;;;4996946;28;20041;-86
2021/10/18 11:21:13;;;;;;;4.75;4.35;;;18.40;74.20;;;;;;4995505;28;20026;-84
2021/10/18 11:24:12;;;;;;;4.35;4.05;;;18.40;74.20;;;;;;4993193;28;20037;-85
2021/10/18 11:26:40;;;;;;;3.95;3.75;;;18.40;74.20;;;;;;5002182;28;20049;-85
2021/10/18 11:29:11;;;;;;;3.95;3.75;;;18.40;74.20;;;;;;4989659;28;20541;-85
2021/10/18 11:31:38;;;;;;;;;;;18.40;74.20;;;;;;4990629;28;20520;-84
2021/10/18 11:34:15;;;;;;;4.10;3.90;;;18.40;74.20;;;;;;5027666;28;19906;-84
2021/10/18 11:36:49;;;;;;;4.38;3.95;;;18.40;74.10;;;;;;5026086;28;20057;-86
2021/10/18 11:39:24;;;;;;;3.88;3.67;;;18.40;74.10;;;;;;4977360;28;20475;-84
2021/10/18 11:42:06;;;;;;;4.90;4.50;;;18.50;74.20;;;;;;4977487;28;20046;-85
2021/10/18 11:45:00;;;;;;;13.32;4.80;;;18.50;74.30;;;;;;4993310;28;20053;-85
2021/10/18 11:47:36;;;;;;;4.32;4.13;;;18.50;74.30;;;;;;4994471;28;20031;-85
2021/10/18 11:50:14;;;;;;;3.65;3.45;;;18.50;74.20;;;;;;4993200;28;20030;-85
2021/10/18 11:52:56;;;;;;;4.60;4.22;;;18.70;74.10;;;;;;4977673;28;20049;-85
2021/10/18 11:55:29;;;;;;;4.43;4.13;;;18.90;74.00;;;;;;4991676;28;20043;-86
2021/10/18 11:57:58;;;;;;;5.47;4.72;;;19.00;73.60;;;;;;5028090;28;20403;-87
2021/10/18 12:00:28;;;;;;;4.22;4.03;;;19.10;73.40;;;;;;4978471;28;20041;-87
2021/10/18 12:03:01;;;;;;;4.22;4.03;;;19.20;73.20;;;;;;4994658;28;20037;-86
2021/10/18 12:05:38;;;;;;;5.28;4.55;;;19.30;73.20;;;;;;4983927;28;20034;-86
2021/10/18 12:08:05;;;;;;;4.45;4.15;;;19.40;73.20;;;;;;4983957;28;20029;-86
2021/10/18 12:10:32;;;;;;;4.05;3.85;;;19.50;73.20;;;;;;4989095;28;20026;-86
2021/10/18 12:13:04;;;;;;;4.93;4.55;;;19.50;73.20;;;;;;4994681;28;20026;-88
2021/10/18 12:15:31;;;;;;;9.80;4.07;;;19.50;73.20;;;;;;4991825;28;20038;-87
2021/10/18 12:17:58;;;;;;;4.38;4.13;;;19.50;73.20;;;;;;4987346;28;20042;-86
2021/10/18 12:20:24;;;;;;;3.85;3.65;;;19.60;73.30;;;;;;4992017;28;20033;-86
2021/10/18 12:23:07;;;;;;;4.45;4.25;;;19.60;73.20;;;;;;4991412;28;20388;-86
2021/10/18 12:25:34;;;;;;;4.60;4.40;;;19.60;73.30;;;;;;4973146;28;20030;-86
2021/10/18 12:28:30;;;;;;;4.30;4.10;;;19.70;73.20;;;;;;4995060;28;20045;-87
2021/10/18 12:30:57;;;;;;;4.40;4.20;;;19.70;73.10;;;;;;5009977;28;20404;-86
2021/10/18 12:33:32;;;;;;;4.95;4.65;;;19.80;73.00;;;;;;4998097;28;20391;-85
2021/10/18 12:35:58;;;;;;;5.03;4.72;;;19.80;72.90;;;;;;4996187;28;20487;-84
2021/10/18 12:38:26;;;;;;;4.43;4.20;;;19.90;72.80;;;;;;4987067;28;20033;-85
2021/10/18 12:41:04;;;;;;;4.10;3.90;;;19.90;72.70;;;;;;4990320;28;20018;-86
2021/10/18 12:43:30;;;;;;;3.92;3.72;;;19.90;72.70;;;;;;4973656;28;20026;-85
2021/10/18 12:45:56;;;;;;;4.10;3.90;;;20.00;72.60;;;;;;4991065;28;20026;-85
2021/10/18 12:48:23;;;;;;;3.88;3.67;;;20.00;72.60;;;;;;5025648;28;20480;-85
2021/10/18 12:50:49;;;;;;;4.75;4.45;;;20.00;72.50;;;;;;4977187;28;20049;-85
2021/10/18 12:53:30;;;;;;;4.40;4.20;;;20.00;72.50;;;;;;4986662;28;20034;-85
2021/10/18 12:55:56;;;;;;;;;;;20.10;72.50;;;;;;4988151;28;20053;-86
2021/10/18 12:58:22;;;;;;;6.95;4.40;;;20.10;72.40;;;;;;4991158;28;19918;-87
2021/10/18 13:00:48;;;;;;;4.80;4.60;;;20.20;72.30;;;;;;4994242;28;20419;-87
2021/10/18 13:03:22;;;;;;;5.25;4.95;;;20.20;72.30;;;;;;4992685;28;20039;-86
2021/10/18 13:05:49;;;;;;;4.70;4.50;;;20.20;72.20;;;;;;4987019;28;20034;-86
2021/10/18 13:08:20;;;;;;;5.50;5.10;;;20.20;72.20;;;;;;4975111;28;20042;-86
2021/10/18 13:10:49;;;;;;;4.60;4.40;;;20.20;72.20;;;;;;4989156;28;20411;-86
2021/10/18 13:13:16;;;;;;;6.13;5.72;;;20.30;72.30;;;;;;4990834;28;20042;-86
2021/10/18 13:15:43;;;;;;;4.93;4.72;;;20.30;72.20;;;;;;4994517;28;20034;-85
2021/10/18 13:18:10;;;;;;;4.63;4.43;;;20.30;72.20;;;;;;4992931;28;20399;-85
2021/10/18 13:20:36;;;;;;;5.28;4.97;;;20.30;72.10;;;;;;4973316;28;20038;-86
2021/10/18 13:23:05;;;;;;;5.07;4.88;;;20.30;72.10;;;;;;5022770;28;20037;-87
2021/10/18 13:25:33;;;;;;;4.97;4.78;;;20.30;72.10;;;;;;4959294;28;20035;-87
2021/10/18 13:27:59;;;;;;;5.07;4.78;;;20.30;72.20;;;;;;4993867;28;20495;-88
2021/10/18 13:30:25;;;;;;;4.50;4.30;;;20.20;72.20;;;;;;5028612;28;20045;-89
2021/10/18 13:32:52;;;;;;;5.18;4.72;;;20.20;72.30;;;;;;4999481;28;20037;-86
2021/10/18 13:35:18;;;;;;;5.97;4.68;;;20.20;72.30;;;;;;4999629;28;20042;-86
2021/10/18 13:37:44;;;;;;;4.97;4.70;;;20.20;72.30;;;;;;4992907;28;20038;-87
2021/10/18 13:40:11;;;;;;;5.20;4.85;;;20.10;72.20;;;;;;4997594;28;20022;-92
2021/10/18 13:42:38;;;;;;;4.72;4.53;;;20.10;72.20;;;;;;4989929;28;20471;-90
2021/10/18 13:45:05;;;;;;;5.22;4.82;;;20.10;72.20;;;;;;4990848;28;20494;-88
2021/10/18 13:47:31;;;;;;;4.50;4.30;;;20.10;72.20;;;;;;4993624;28;20034;-91
2021/10/18 13:49:57;;;;;;;4.50;4.20;;;20.20;72.20;;;;;;4978407;28;20033;-90
2021/10/18 13:52:23;;;;;;;4.47;4.28;;;20.20;72.20;;;;;;4991965;28;20038;-91
2021/10/18 13:54:52;;;;;;;4.82;4.50;;;20.20;72.20;;;;;;4992802;28;20038;-91
2021/10/18 13:57:19;;;;;;;5.05;4.75;;;20.10;72.10;;;;;;4984087;28;20050;-90
2021/10/18 13:59:45;;;;;;;4.65;4.40;;;20.20;72.10;;;;;;4992430;28;20026;-90
2021/10/18 14:02:14;;;;;;;4.43;4.22;;;20.20;72.90;;;;;;5018130;28;20041;-92